Time,TemperatureF,DewpointF,PressureIn,WindDirection,WindDirectionDegrees,WindSpeedMPH,WindSpeedGustMPH,Humidity,HourlyPrecipIn,Conditions,Clouds,dailyrainin,SoftwareType,DateUTC
2013-04-02 00:02:00,39.6,30.6,29.90,ESE,102,6.0,21.0,70,0.00,,,0.00,meteohub,2013-04-01 23:02:00,
2013-04-02 00:07:00,39.6,30.9,29.90,ESE,117,10.0,21.0,71,0.00,,,0.00,meteohub,2013-04-01 23:07:00,
2013-04-02 00:17:00,39.6,30.9,29.90,East,98,11.0,18.0,71,0.00,,,0.00,meteohub,2013-04-01 23:17:00,
2013-04-02 00:27:00,39.4,30.7,29.90,ESE,120,5.0,20.0,71,0.00,,,0.00,meteohub,2013-04-01 23:27:00,
2013-04-02 00:37:00,39.4,30.7,29.90,ESE,113,11.0,18.0,71,0.00,,,0.00,meteohub,2013-04-01 23:37:00,
2013-04-02 00:47:00,39.4,30.7,29.91,ESE,103,5.0,18.0,71,0.00,,,0.00,meteohub,2013-04-01 23:47:00,
2013-04-02 00:52:00,39.6,30.9,29.91,ESE,111,9.0,19.0,71,0.00,,,0.00,meteohub,2013-04-01 23:52:00,
2013-04-02 01:02:00,39.4,30.7,29.91,ESE,104,11.0,19.0,71,0.00,,,0.00,meteohub,2013-04-02 00:02:00,
2013-04-02 01:12:00,39.6,30.9,29.91,East,96,16.0,19.0,71,0.00,,,0.00,meteohub,2013-04-02 00:12:00,
2013-04-02 01:22:00,39.6,30.6,29.91,SE,127,15.0,19.0,70,0.00,,,0.00,meteohub,2013-04-02 00:22:00,
2013-04-02 01:27:00,39.6,30.6,29.91,ESE,107,11.0,20.0,70,0.00,,,0.00,meteohub,2013-04-02 00:27:00,
2013-04-02 01:32:00,39.6,30.6,29.91,ESE,106,9.0,20.0,70,0.00,,,0.00,meteohub,2013-04-02 00:32:00,
2013-04-02 01:42:00,39.6,30.6,29.91,ESE,121,10.0,16.0,70,0.00,,,0.00,meteohub,2013-04-02 00:42:00,
2013-04-02 01:47:00,39.6,30.6,29.92,ESE,119,15.0,16.0,70,0.00,,,0.00,meteohub,2013-04-02 00:47:00,
2013-04-02 01:52:00,39.6,30.6,29.92,ESE,111,13.0,15.0,70,0.00,,,0.00,meteohub,2013-04-02 00:52:00,
2013-04-02 02:02:00,39.6,30.6,29.92,East,99,10.0,20.0,70,0.00,,,0.00,meteohub,2013-04-02 01:02:00,
2013-04-02 02:12:00,39.6,30.6,29.92,ESE,112,6.0,20.0,70,0.00,,,0.00,meteohub,2013-04-02 01:12:00,
2013-04-02 02:17:00,39.6,30.6,29.92,ESE,111,5.0,18.0,70,0.00,,,0.00,meteohub,2013-04-02 01:17:00,
2013-04-02 02:27:00,39.6,30.6,29.92,East,84,8.0,16.0,70,0.00,,,0.00,meteohub,2013-04-02 01:27:00,
2013-04-02 02:32:00,39.6,30.6,29.92,ESE,119,9.0,18.0,70,0.00,,,0.00,meteohub,2013-04-02 01:32:00,
2013-04-02 02:37:00,39.4,30.7,29.92,ESE,117,4.0,18.0,71,0.00,,,0.00,meteohub,2013-04-02 01:37:00,
2013-04-02 02:42:00,39.4,30.7,29.92,ESE,105,10.0,18.0,71,0.00,,,0.00,meteohub,2013-04-02 01:42:00,
2013-04-02 02:47:00,39.4,30.7,29.92,East,100,8.0,15.0,71,0.00,,,0.00,meteohub,2013-04-02 01:47:00,
2013-04-02 02:52:00,39.4,30.7,29.92,East,91,13.0,15.0,71,0.00,,,0.00,meteohub,2013-04-02 01:52:00,
2013-04-02 03:02:00,39.4,31.1,29.92,ESE,117,10.0,14.0,72,0.00,,,0.00,meteohub,2013-04-02 02:02:00,
2013-04-02 03:07:00,39.2,30.6,29.92,East,98,9.0,14.0,71,0.00,,,0.00,meteohub,2013-04-02 02:07:00,
2013-04-02 03:12:00,39.2,30.6,29.92,ESE,111,5.0,16.0,71,0.00,,,0.00,meteohub,2013-04-02 02:12:00,
2013-04-02 03:17:00,39.2,30.6,29.92,ESE,105,9.0,19.0,71,0.00,,,0.00,meteohub,2013-04-02 02:17:00,
2013-04-02 03:22:00,39.0,30.7,29.93,East,101,6.0,19.0,72,0.00,,,0.00,meteohub,2013-04-02 02:22:00,
2013-04-02 03:27:00,39.0,30.7,29.92,ESE,108,9.0,19.0,72,0.00,,,0.00,meteohub,2013-04-02 02:27:00,
2013-04-02 03:32:00,39.0,30.7,29.92,ESE,102,6.0,15.0,72,0.00,,,0.00,meteohub,2013-04-02 02:32:00,
2013-04-02 03:42:00,39.0,30.7,29.93,East,94,8.0,15.0,72,0.00,,,0.00,meteohub,2013-04-02 02:42:00,
2013-04-02 03:47:00,39.0,30.7,29.93,East,82,10.0,15.0,72,0.00,,,0.00,meteohub,2013-04-02 02:47:00,
2013-04-02 03:52:00,39.0,30.7,29.93,ESE,104,9.0,15.0,72,0.00,,,0.00,meteohub,2013-04-02 02:52:00,
2013-04-02 03:57:00,39.0,30.7,29.93,ESE,108,9.0,14.0,72,0.00,,,0.00,meteohub,2013-04-02 02:57:00,
2013-04-02 04:02:00,38.8,30.6,29.93,East,101,6.0,11.0,72,0.00,,,0.00,meteohub,2013-04-02 03:02:00,
2013-04-02 04:07:00,38.8,30.6,29.93,SE,128,8.0,11.0,72,0.00,,,0.00,meteohub,2013-04-02 03:07:00,
2013-04-02 04:12:00,38.8,30.6,29.93,East,97,8.0,14.0,72,0.00,,,0.00,meteohub,2013-04-02 03:12:00,
2013-04-02 04:17:00,38.8,30.2,29.93,East,97,8.0,14.0,71,0.00,,,0.00,meteohub,2013-04-02 03:17:00,
2013-04-02 04:27:00,38.8,30.2,29.93,SE,128,9.0,13.0,71,0.00,,,0.00,meteohub,2013-04-02 03:27:00,
2013-04-02 04:37:00,38.7,30.0,29.93,ESE,117,6.0,13.0,71,0.00,,,0.00,meteohub,2013-04-02 03:37:00,
2013-04-02 04:42:00,38.7,30.0,29.93,ESE,111,5.0,13.0,71,0.00,,,0.00,meteohub,2013-04-02 03:42:00,
2013-04-02 04:47:00,38.7,30.4,29.93,East,101,4.0,14.0,72,0.00,,,0.00,meteohub,2013-04-02 03:47:00,
2013-04-02 04:52:00,38.5,30.2,29.93,East,80,8.0,14.0,72,0.00,,,0.00,meteohub,2013-04-02 03:52:00,
2013-04-02 05:02:00,38.1,30.2,29.93,ESE,103,6.0,10.0,73,0.00,,,0.00,meteohub,2013-04-02 04:02:00,
2013-04-02 05:07:00,38.1,30.2,29.93,ESE,108,4.0,10.0,73,0.00,,,0.00,meteohub,2013-04-02 04:07:00,
2013-04-02 05:12:00,38.1,30.2,29.94,East,87,6.0,10.0,73,0.00,,,0.00,meteohub,2013-04-02 04:12:00,
2013-04-02 05:17:00,38.1,30.2,29.94,East,91,4.0,10.0,73,0.00,,,0.00,meteohub,2013-04-02 04:17:00,
2013-04-02 05:22:00,37.9,30.0,29.94,ESE,102,5.0,10.0,73,0.00,,,0.00,meteohub,2013-04-02 04:22:00,
2013-04-02 05:27:00,37.9,30.4,29.94,East,95,6.0,11.0,74,0.00,,,0.00,meteohub,2013-04-02 04:27:00,
2013-04-02 05:37:00,37.8,30.2,29.94,East,90,6.0,11.0,74,0.00,,,0.00,meteohub,2013-04-02 04:37:00,
2013-04-02 05:42:00,37.8,30.2,29.94,ESE,113,10.0,13.0,74,0.00,,,0.00,meteohub,2013-04-02 04:42:00,
2013-04-02 05:47:00,37.6,30.0,29.94,East,98,6.0,13.0,74,0.00,,,0.00,meteohub,2013-04-02 04:47:00,
2013-04-02 05:52:00,37.6,30.0,29.94,East,98,8.0,13.0,74,0.00,,,0.00,meteohub,2013-04-02 04:52:00,
2013-04-02 05:57:00,37.2,30.0,29.94,East,90,6.0,13.0,75,0.00,,,0.00,meteohub,2013-04-02 04:57:00,
2013-04-02 06:02:00,37.0,29.5,29.94,East,98,8.0,15.0,74,0.00,,,0.00,meteohub,2013-04-02 05:02:00,
2013-04-02 06:07:00,36.9,29.7,29.94,ESE,103,10.0,15.0,75,0.00,,,0.00,meteohub,2013-04-02 05:07:00,
2013-04-02 06:12:00,36.9,29.7,29.95,East,90,8.0,15.0,75,0.00,,,0.00,meteohub,2013-04-02 05:12:00,
2013-04-02 06:17:00,36.3,29.1,29.95,East,97,8.0,13.0,75,0.00,,,0.00,meteohub,2013-04-02 05:17:00,
2013-04-02 06:22:00,36.1,28.9,29.95,East,92,8.0,13.0,75,0.00,,,0.00,meteohub,2013-04-02 05:22:00,
2013-04-02 06:27:00,36.0,28.8,29.95,East,96,9.0,13.0,75,0.00,,,0.00,meteohub,2013-04-02 05:27:00,
2013-04-02 06:32:00,35.8,28.6,29.95,East,101,9.0,16.0,75,0.00,,,0.00,meteohub,2013-04-02 05:32:00,
2013-04-02 06:37:00,35.2,28.0,29.96,ESE,105,9.0,16.0,75,0.00,,,0.00,meteohub,2013-04-02 05:37:00,
2013-04-02 06:42:00,34.9,28.0,29.96,East,98,6.0,16.0,76,0.00,,,0.00,meteohub,2013-04-02 05:42:00,
2013-04-02 06:47:00,34.7,27.9,29.96,East,100,6.0,10.0,76,0.00,,,0.00,meteohub,2013-04-02 05:47:00,
2013-04-02 06:52:00,34.5,27.7,29.96,East,101,4.0,9.0,76,0.00,,,0.00,meteohub,2013-04-02 05:52:00,
2013-04-02 06:57:00,34.3,27.9,29.96,ESE,106,5.0,9.0,77,0.00,,,0.00,meteohub,2013-04-02 05:57:00,
2013-04-02 07:02:00,34.5,28.0,29.96,ESE,110,4.0,9.0,77,0.00,,,0.00,meteohub,2013-04-02 06:02:00,
2013-04-02 07:07:00,34.9,28.4,29.96,East,99,6.0,10.0,77,0.00,,,0.00,meteohub,2013-04-02 06:07:00,
2013-04-02 07:12:00,35.4,28.6,29.96,East,96,10.0,10.0,76,0.00,,,0.00,meteohub,2013-04-02 06:12:00,
2013-04-02 07:22:00,36.1,28.9,29.97,ESE,109,5.0,14.0,75,0.00,,,0.00,meteohub,2013-04-02 06:22:00,
2013-04-02 07:27:00,36.3,28.8,29.97,ESE,103,9.0,16.0,74,0.00,,,0.00,meteohub,2013-04-02 06:27:00,
2013-04-02 07:32:00,36.1,28.6,29.97,East,92,9.0,16.0,74,0.00,,,0.00,meteohub,2013-04-02 06:32:00,
2013-04-02 07:37:00,36.1,28.6,29.97,ESE,109,13.0,16.0,74,0.00,,,0.00,meteohub,2013-04-02 06:37:00,
2013-04-02 07:42:00,36.1,28.6,29.97,East,97,10.0,16.0,74,0.00,,,0.00,meteohub,2013-04-02 06:42:00,
2013-04-02 07:47:00,36.3,28.8,29.97,East,94,9.0,15.0,74,0.00,,,0.00,meteohub,2013-04-02 06:47:00,
2013-04-02 07:57:00,36.3,28.6,29.98,East,97,16.0,20.0,73,0.00,,,0.00,meteohub,2013-04-02 06:57:00,
2013-04-02 08:02:00,36.3,28.6,29.98,ENE,72,13.0,20.0,73,0.00,,,0.00,meteohub,2013-04-02 07:02:00,
2013-04-02 08:07:00,36.1,28.6,29.98,East,96,9.0,20.0,74,0.00,,,0.00,meteohub,2013-04-02 07:07:00,
2013-04-02 08:17:00,36.0,28.4,29.99,East,97,8.0,15.0,74,0.00,,,0.00,meteohub,2013-04-02 07:17:00,
2013-04-02 08:22:00,36.3,28.8,29.99,ESE,118,11.0,16.0,74,0.00,,,0.00,meteohub,2013-04-02 07:22:00,
2013-04-02 08:27:00,36.7,29.1,29.99,East,92,9.0,16.0,74,0.00,,,0.00,meteohub,2013-04-02 07:27:00,
2013-04-02 08:37:00,37.0,29.1,29.99,ESE,106,9.0,21.0,73,0.00,,,0.00,meteohub,2013-04-02 07:37:00,
2013-04-02 08:42:00,37.0,29.1,29.99,East,99,11.0,21.0,73,0.00,,,0.00,meteohub,2013-04-02 07:42:00,
2013-04-02 08:47:00,37.2,29.3,30.00,ESE,118,6.0,22.0,73,0.00,,,0.00,meteohub,2013-04-02 07:47:00,
2013-04-02 08:52:00,37.6,29.3,30.00,ESE,107,14.0,22.0,72,0.00,,,0.00,meteohub,2013-04-02 07:52:00,
2013-04-02 08:57:00,37.8,29.5,30.00,ESE,103,16.0,22.0,72,0.00,,,0.00,meteohub,2013-04-02 07:57:00,
2013-04-02 09:07:00,37.9,29.3,30.00,East,97,9.0,22.0,71,0.00,,,0.00,meteohub,2013-04-02 08:07:00,
2013-04-02 09:12:00,38.1,29.5,30.00,ESE,105,15.0,22.0,71,0.00,,,0.00,meteohub,2013-04-02 08:12:00,
2013-04-02 09:22:00,38.1,29.5,30.00,ESE,103,18.0,26.0,71,0.00,,,0.00,meteohub,2013-04-02 08:22:00,
2013-04-02 09:27:00,38.1,29.5,30.01,ESE,120,14.0,28.0,71,0.00,,,0.00,meteohub,2013-04-02 08:27:00,
2013-04-02 09:32:00,37.9,29.3,30.01,ESE,122,15.0,28.0,71,0.00,,,0.00,meteohub,2013-04-02 08:32:00,
2013-04-02 09:37:00,37.9,29.3,30.01,ESE,106,11.0,28.0,71,0.00,,,0.00,meteohub,2013-04-02 08:37:00,
2013-04-02 09:42:00,37.9,29.3,30.01,ESE,113,20.0,25.0,71,0.00,,,0.00,meteohub,2013-04-02 08:42:00,
2013-04-02 09:47:00,37.9,29.3,30.01,ESE,119,6.0,25.0,71,0.00,,,0.00,meteohub,2013-04-02 08:47:00,
2013-04-02 09:52:00,38.5,30.2,30.01,ESE,107,6.0,22.0,72,0.00,,,0.00,meteohub,2013-04-02 08:52:00,
2013-04-02 09:57:00,39.0,30.0,30.01,ESE,112,15.0,22.0,70,0.00,,,0.00,meteohub,2013-04-02 08:57:00,
2013-04-02 10:02:00,39.4,30.4,30.01,ESE,113,10.0,22.0,70,0.00,,,0.00,meteohub,2013-04-02 09:02:00,
2013-04-02 10:12:00,39.7,30.4,30.02,ESE,117,15.0,22.0,69,0.00,,,0.00,meteohub,2013-04-02 09:12:00,
2013-04-02 10:17:00,39.9,30.2,30.01,SE,128,10.0,22.0,68,0.00,,,0.00,meteohub,2013-04-02 09:17:00,
2013-04-02 10:22:00,40.3,30.9,30.01,ESE,123,13.0,22.0,69,0.00,,,0.00,meteohub,2013-04-02 09:22:00,
2013-04-02 10:27:00,40.8,31.5,30.02,ESE,121,6.0,25.0,69,0.00,,,0.00,meteohub,2013-04-02 09:27:00,
2013-04-02 10:37:00,41.2,31.5,30.01,SE,140,9.0,25.0,68,0.00,,,0.00,meteohub,2013-04-02 09:37:00,
2013-04-02 10:42:00,41.5,31.5,30.02,SE,125,11.0,20.0,67,0.00,,,0.00,meteohub,2013-04-02 09:42:00,
2013-04-02 10:47:00,41.4,30.9,30.01,ESE,103,10.0,28.0,66,0.00,,,0.00,meteohub,2013-04-02 09:47:00,
2013-04-02 10:52:00,41.9,32.2,30.02,East,97,9.0,28.0,68,0.00,,,0.00,meteohub,2013-04-02 09:52:00,
2013-04-02 10:57:00,42.3,31.6,30.02,ESE,123,9.0,28.0,66,0.00,,,0.00,meteohub,2013-04-02 09:57:00,
2013-04-02 11:02:00,42.8,31.8,30.02,ESE,105,14.0,22.0,65,0.00,,,0.00,meteohub,2013-04-02 10:02:00,
2013-04-02 11:12:00,43.5,32.5,30.02,ESE,109,18.0,22.0,65,0.00,,,0.00,meteohub,2013-04-02 10:12:00,
2013-04-02 11:22:00,43.2,32.2,30.02,East,100,11.0,26.0,65,0.00,,,0.00,meteohub,2013-04-02 10:22:00,
2013-04-02 11:32:00,44.1,32.7,30.02,ESE,105,19.0,24.0,64,0.00,,,0.00,meteohub,2013-04-02 10:32:00,
2013-04-02 11:42:00,44.4,32.5,30.02,East,89,22.0,25.0,63,0.00,,,0.00,meteohub,2013-04-02 10:42:00,
2013-04-02 11:47:00,44.8,32.5,30.02,ENE,76,6.0,28.0,62,0.00,,,0.00,meteohub,2013-04-02 10:47:00,
2013-04-02 11:57:00,45.1,32.5,30.02,ESE,103,16.0,26.0,61,0.00,,,0.00,meteohub,2013-04-02 10:57:00,
2013-04-02 12:02:00,45.0,32.4,30.03,ESE,111,18.0,26.0,61,0.00,,,0.00,meteohub,2013-04-02 11:02:00,
2013-04-02 12:07:00,45.7,33.4,30.02,East,88,18.0,26.0,62,0.00,,,0.00,meteohub,2013-04-02 11:07:00,
2013-04-02 12:12:00,45.9,33.3,30.02,ESE,123,14.0,26.0,61,0.00,,,0.00,meteohub,2013-04-02 11:12:00,
2013-04-02 12:17:00,46.0,33.3,30.03,East,97,13.0,26.0,61,0.00,,,0.00,meteohub,2013-04-02 11:17:00,
2013-04-02 12:22:00,45.9,32.7,30.03,ESE,111,9.0,25.0,60,0.00,,,0.00,meteohub,2013-04-02 11:22:00,
2013-04-02 12:27:00,46.6,33.8,30.03,East,97,21.0,25.0,61,0.00,,,0.00,meteohub,2013-04-02 11:27:00,
2013-04-02 12:32:00,46.6,33.4,30.03,SE,139,18.0,25.0,60,0.00,,,0.00,meteohub,2013-04-02 11:32:00,
2013-04-02 12:37:00,46.9,33.4,30.02,SE,131,8.0,25.0,59,0.00,,,0.00,meteohub,2013-04-02 11:37:00,
2013-04-02 12:42:00,46.8,33.3,30.03,ESE,110,16.0,26.0,59,0.00,,,0.00,meteohub,2013-04-02 11:42:00,
2013-04-02 12:52:00,47.3,33.6,30.03,ESE,107,14.0,26.0,59,0.00,,,0.00,meteohub,2013-04-02 11:52:00,
2013-04-02 12:57:00,47.5,33.4,30.03,ESE,113,13.0,26.0,58,0.00,,,0.00,meteohub,2013-04-02 11:57:00,
2013-04-02 13:02:00,47.3,33.3,30.03,ESE,116,14.0,28.0,58,0.00,,,0.00,meteohub,2013-04-02 12:02:00,
2013-04-02 13:07:00,47.7,33.3,30.03,ESE,104,11.0,28.0,57,0.00,,,0.00,meteohub,2013-04-02 12:07:00,
2013-04-02 13:12:00,48.0,33.1,30.03,ESE,109,11.0,28.0,56,0.00,,,0.00,meteohub,2013-04-02 12:12:00,
2013-04-02 13:22:00,48.6,33.6,30.03,ESE,115,14.0,21.0,56,0.00,,,0.00,meteohub,2013-04-02 12:22:00,
2013-04-02 13:27:00,48.6,33.1,30.03,ESE,104,10.0,21.0,55,0.00,,,0.00,meteohub,2013-04-02 12:27:00,
2013-04-02 13:32:00,48.2,32.7,30.03,SE,127,10.0,21.0,55,0.00,,,0.00,meteohub,2013-04-02 12:32:00,
2013-04-02 13:37:00,48.9,34.0,30.03,ESE,118,22.0,22.0,56,0.00,,,0.00,meteohub,2013-04-02 12:37:00,
2013-04-02 13:47:00,48.9,33.4,30.03,East,94,11.0,24.0,55,0.00,,,0.00,meteohub,2013-04-02 12:47:00,
2013-04-02 13:57:00,49.6,34.2,30.03,ESE,114,11.0,20.0,55,0.00,,,0.00,meteohub,2013-04-02 12:57:00,
2013-04-02 14:07:00,49.5,33.1,30.03,SE,130,9.0,22.0,53,0.00,,,0.00,meteohub,2013-04-02 13:07:00,
2013-04-02 14:12:00,49.3,32.9,30.03,ESE,122,21.0,22.0,53,0.00,,,0.00,meteohub,2013-04-02 13:12:00,
2013-04-02 14:17:00,49.3,32.9,30.03,ESE,119,13.0,22.0,53,0.00,,,0.00,meteohub,2013-04-02 13:17:00,
2013-04-02 14:22:00,49.5,31.6,30.03,ESE,121,15.0,22.0,50,0.00,,,0.00,meteohub,2013-04-02 13:22:00,
2013-04-02 14:32:00,49.8,32.4,30.03,ESE,107,11.0,24.0,51,0.00,,,0.00,meteohub,2013-04-02 13:32:00,
2013-04-02 14:37:00,49.6,33.3,30.03,ESE,120,11.0,24.0,53,0.00,,,0.00,meteohub,2013-04-02 13:37:00,
2013-04-02 14:42:00,49.8,32.4,30.03,SE,136,14.0,22.0,51,0.00,,,0.00,meteohub,2013-04-02 13:42:00,
2013-04-02 14:52:00,49.8,32.0,30.03,ESE,121,16.0,22.0,50,0.00,,,0.00,meteohub,2013-04-02 13:52:00,
2013-04-02 14:57:00,50.4,32.9,30.03,East,92,11.0,22.0,51,0.00,,,0.00,meteohub,2013-04-02 13:57:00,
2013-04-02 15:02:00,50.2,32.2,30.03,SE,126,11.0,21.0,50,0.00,,,0.00,meteohub,2013-04-02 14:02:00,
2013-04-02 15:07:00,50.4,32.9,30.03,East,101,9.0,21.0,51,0.00,,,0.00,meteohub,2013-04-02 14:07:00,
2013-04-02 15:17:00,50.5,32.0,30.03,SE,130,15.0,22.0,49,0.00,,,0.00,meteohub,2013-04-02 14:17:00,
2013-04-02 15:22:00,50.5,32.0,30.03,ENE,70,11.0,22.0,49,0.00,,,0.00,meteohub,2013-04-02 14:22:00,
2013-04-02 15:27:00,50.5,31.6,30.03,ESE,117,24.0,24.0,48,0.00,,,0.00,meteohub,2013-04-02 14:27:00,
2013-04-02 15:37:00,50.7,31.8,30.03,ESE,102,13.0,24.0,48,0.00,,,0.00,meteohub,2013-04-02 14:37:00,
2013-04-02 15:47:00,51.1,31.1,30.03,ESE,117,16.0,28.0,46,0.00,,,0.00,meteohub,2013-04-02 14:47:00,
2013-04-02 15:52:00,51.1,30.6,30.03,ESE,119,6.0,28.0,45,0.00,,,0.00,meteohub,2013-04-02 14:52:00,
2013-04-02 15:57:00,50.9,30.4,30.03,SE,128,14.0,21.0,45,0.00,,,0.00,meteohub,2013-04-02 14:57:00,
2013-04-02 16:02:00,50.7,30.7,30.03,East,100,16.0,21.0,46,0.00,,,0.00,meteohub,2013-04-02 15:02:00,
2013-04-02 16:07:00,50.7,30.2,30.03,SSE,160,4.0,21.0,45,0.00,,,0.00,meteohub,2013-04-02 15:07:00,
2013-04-02 16:12:00,51.3,30.0,30.03,ESE,115,9.0,19.0,44,0.00,,,0.00,meteohub,2013-04-02 15:12:00,
2013-04-02 16:17:00,51.3,29.5,30.03,SE,128,5.0,19.0,43,0.00,,,0.00,meteohub,2013-04-02 15:17:00,
2013-04-02 16:22:00,51.4,29.1,30.03,ESE,106,11.0,19.0,42,0.00,,,0.00,meteohub,2013-04-02 15:22:00,
2013-04-02 16:32:00,50.9,29.1,30.03,ESE,123,18.0,24.0,43,0.00,,,0.00,meteohub,2013-04-02 15:32:00,
2013-04-02 16:37:00,50.9,28.6,30.03,ESE,115,10.0,24.0,42,0.00,,,0.00,meteohub,2013-04-02 15:37:00,
2013-04-02 16:42:00,51.1,29.3,30.03,SE,127,9.0,24.0,43,0.00,,,0.00,meteohub,2013-04-02 15:42:00,
2013-04-02 16:47:00,50.9,29.1,30.03,ESE,111,14.0,20.0,43,0.00,,,0.00,meteohub,2013-04-02 15:47:00,
2013-04-02 16:57:00,51.1,28.2,30.03,ESE,121,10.0,20.0,41,0.00,,,0.00,meteohub,2013-04-02 15:57:00,
2013-04-02 17:02:00,51.1,28.8,30.03,ESE,102,11.0,18.0,42,0.00,,,0.00,meteohub,2013-04-02 16:02:00,
2013-04-02 17:07:00,50.5,27.1,30.03,ESE,110,11.0,20.0,40,0.00,,,0.00,meteohub,2013-04-02 16:07:00,
2013-04-02 17:17:00,50.5,27.1,30.04,East,95,18.0,20.0,40,0.00,,,0.00,meteohub,2013-04-02 16:17:00,
2013-04-02 17:22:00,50.4,26.4,30.04,SE,128,11.0,19.0,39,0.00,,,0.00,meteohub,2013-04-02 16:22:00,
2013-04-02 17:32:00,50.0,25.3,30.04,East,100,14.0,22.0,38,0.00,,,0.00,meteohub,2013-04-02 16:32:00,
2013-04-02 17:37:00,50.0,24.1,30.04,ENE,75,16.0,22.0,36,0.00,,,0.00,meteohub,2013-04-02 16:37:00,
2013-04-02 17:47:00,50.0,24.8,30.04,ESE,115,11.0,21.0,37,0.00,,,0.00,meteohub,2013-04-02 16:47:00,
2013-04-02 17:52:00,49.8,23.2,30.04,ESE,111,18.0,21.0,35,0.00,,,0.00,meteohub,2013-04-02 16:52:00,
2013-04-02 18:02:00,49.3,23.5,30.04,ESE,105,9.0,26.0,36,0.00,,,0.00,meteohub,2013-04-02 17:02:00,
2013-04-02 18:07:00,49.3,24.1,30.04,ESE,111,21.0,26.0,37,0.00,,,0.00,meteohub,2013-04-02 17:07:00,
2013-04-02 18:12:00,49.3,23.5,30.04,ESE,107,14.0,25.0,36,0.00,,,0.00,meteohub,2013-04-02 17:12:00,
2013-04-02 18:17:00,49.3,24.1,30.04,East,96,13.0,22.0,37,0.00,,,0.00,meteohub,2013-04-02 17:17:00,
2013-04-02 18:22:00,48.9,23.7,30.04,ESE,113,13.0,21.0,37,0.00,,,0.00,meteohub,2013-04-02 17:22:00,
2013-04-02 18:27:00,48.7,24.3,30.04,ESE,116,4.0,22.0,38,0.00,,,0.00,meteohub,2013-04-02 17:27:00,
2013-04-02 18:37:00,48.4,25.2,30.04,ESE,123,15.0,22.0,40,0.00,,,0.00,meteohub,2013-04-02 17:37:00,
2013-04-02 18:47:00,48.4,26.4,30.05,ESE,107,9.0,20.0,42,0.00,,,0.00,meteohub,2013-04-02 17:47:00,
2013-04-02 18:57:00,47.8,26.4,30.05,ESE,105,5.0,18.0,43,0.00,,,0.00,meteohub,2013-04-02 17:57:00,
2013-04-02 19:07:00,47.5,26.6,30.05,ESE,123,9.0,18.0,44,0.00,,,0.00,meteohub,2013-04-02 18:07:00,
2013-04-02 19:12:00,47.1,26.8,30.05,East,98,6.0,18.0,45,0.00,,,0.00,meteohub,2013-04-02 18:12:00,
2013-04-02 19:22:00,46.8,27.7,30.06,ESE,121,4.0,14.0,47,0.00,,,0.00,meteohub,2013-04-02 18:22:00,
2013-04-02 19:27:00,46.4,27.3,30.06,ESE,118,4.0,13.0,47,0.00,,,0.00,meteohub,2013-04-02 18:27:00,
2013-04-02 19:32:00,46.0,27.5,30.06,ESE,117,9.0,11.0,48,0.00,,,0.00,meteohub,2013-04-02 18:32:00,
2013-04-02 19:37:00,45.9,27.9,30.06,ESE,107,2.0,11.0,49,0.00,,,0.00,meteohub,2013-04-02 18:37:00,
2013-04-02 19:47:00,45.1,29.5,30.06,ESE,108,6.0,10.0,54,0.00,,,0.00,meteohub,2013-04-02 18:47:00,
2013-04-02 19:52:00,45.0,30.6,30.07,East,94,9.0,18.0,57,0.00,,,0.00,meteohub,2013-04-02 18:52:00,
2013-04-02 19:57:00,44.8,31.3,30.07,ESE,117,9.0,18.0,59,0.00,,,0.00,meteohub,2013-04-02 18:57:00,
2013-04-02 20:03:00,44.4,31.5,30.07,East,97,8.0,14.0,60,0.00,,,0.00,meteohub,2013-04-02 19:03:00,
2013-04-02 20:12:00,43.9,31.6,30.08,East,96,9.0,18.0,62,0.00,,,0.00,meteohub,2013-04-02 19:12:00,
2013-04-02 20:17:00,43.5,31.8,30.08,East,92,8.0,20.0,63,0.00,,,0.00,meteohub,2013-04-02 19:17:00,
2013-04-02 20:22:00,43.3,32.0,30.08,East,85,13.0,20.0,64,0.00,,,0.00,meteohub,2013-04-02 19:22:00,
2013-04-02 20:27:00,43.2,32.2,30.08,East,91,8.0,20.0,65,0.00,,,0.00,meteohub,2013-04-02 19:27:00,
2013-04-02 20:32:00,42.6,32.0,30.09,East,91,8.0,19.0,66,0.00,,,0.00,meteohub,2013-04-02 19:32:00,
2013-04-02 20:37:00,42.4,31.8,30.09,East,92,4.0,19.0,66,0.00,,,0.00,meteohub,2013-04-02 19:37:00,
2013-04-02 20:45:00,42.1,32.4,30.09,East,88,8.0,13.0,68,0.00,,,0.00,meteohub,2013-04-02 19:45:00,
2013-04-02 20:52:00,41.5,32.2,30.09,ESE,119,9.0,16.0,69,0.00,,,0.00,meteohub,2013-04-02 19:52:00,
2013-04-02 20:57:00,41.2,32.2,30.09,ESE,117,11.0,16.0,70,0.00,,,0.00,meteohub,2013-04-02 19:57:00,
2013-04-02 21:02:00,41.0,32.4,30.10,East,96,9.0,14.0,71,0.00,,,0.00,meteohub,2013-04-02 20:02:00,
2013-04-02 21:12:00,40.5,31.8,30.11,East,96,10.0,14.0,71,0.00,,,0.00,meteohub,2013-04-02 20:12:00,
2013-04-02 21:17:00,40.3,32.0,30.11,ENE,78,6.0,14.0,72,0.00,,,0.00,meteohub,2013-04-02 20:17:00,
2013-04-02 21:27:00,39.9,31.6,30.11,East,86,8.0,18.0,72,0.00,,,0.00,meteohub,2013-04-02 20:27:00,
2013-04-02 21:32:00,39.7,31.8,30.11,East,98,8.0,18.0,73,0.00,,,0.00,meteohub,2013-04-02 20:32:00,
2013-04-02 21:37:00,39.6,31.6,30.11,East,95,4.0,13.0,73,0.00,,,0.00,meteohub,2013-04-02 20:37:00,
2013-04-02 21:42:00,39.4,31.5,30.12,East,96,4.0,16.0,73,0.00,,,0.00,meteohub,2013-04-02 20:42:00,
2013-04-02 21:52:00,39.0,31.1,30.12,East,98,6.0,14.0,73,0.00,,,0.00,meteohub,2013-04-02 20:52:00,
2013-04-02 22:02:00,38.7,31.1,30.12,East,83,6.0,14.0,74,0.00,,,0.00,meteohub,2013-04-02 21:02:00,
2013-04-02 22:12:00,38.1,30.6,30.13,ESE,104,9.0,13.0,74,0.00,,,0.00,meteohub,2013-04-02 21:12:00,
2013-04-02 22:22:00,37.8,30.6,30.13,ESE,113,5.0,11.0,75,0.00,,,0.00,meteohub,2013-04-02 21:22:00,
2013-04-02 22:32:00,37.2,30.0,30.13,ESE,112,6.0,10.0,75,0.00,,,0.00,meteohub,2013-04-02 21:32:00,
2013-04-02 22:37:00,37.0,29.8,30.13,East,90,6.0,10.0,75,0.00,,,0.00,meteohub,2013-04-02 21:37:00,
2013-04-02 22:42:00,37.0,30.2,30.14,East,93,6.0,10.0,76,0.00,,,0.00,meteohub,2013-04-02 21:42:00,
2013-04-02 22:47:00,37.0,29.8,30.14,East,96,4.0,10.0,75,0.00,,,0.00,meteohub,2013-04-02 21:47:00,
2013-04-02 22:57:00,36.7,29.5,30.14,East,87,4.0,10.0,75,0.00,,,0.00,meteohub,2013-04-02 21:57:00,
2013-04-02 23:02:00,36.3,29.5,30.14,East,101,1.0,10.0,76,0.00,,,0.00,meteohub,2013-04-02 22:02:00,
2013-04-02 23:07:00,36.0,29.1,30.15,East,98,1.0,9.0,76,0.00,,,0.00,meteohub,2013-04-02 22:07:00,
2013-04-02 23:17:00,36.1,29.3,30.15,East,84,2.0,8.0,76,0.00,,,0.00,meteohub,2013-04-02 22:17:00,
2013-04-02 23:22:00,36.1,29.3,30.15,East,81,4.0,9.0,76,0.00,,,0.00,meteohub,2013-04-02 22:22:00,
2013-04-02 23:27:00,36.0,29.1,30.15,East,81,2.0,9.0,76,0.00,,,0.00,meteohub,2013-04-02 22:27:00,
2013-04-02 23:37:00,35.2,28.4,30.15,East,81,2.0,6.0,76,0.00,,,0.00,meteohub,2013-04-02 22:37:00,
2013-04-02 23:42:00,35.1,28.2,30.15,East,81,4.0,4.0,76,0.00,,,0.00,meteohub,2013-04-02 22:42:00,
2013-04-02 23:52:00,34.9,28.4,30.16,ENE,78,5.0,6.0,77,0.00,,,0.00,meteohub,2013-04-02 22:52:00,